createdAt,value
2022-10-09T00:02:12.460Z,9.09
2022-10-09T00:04:39.230Z,9.09
2022-10-09T00:07:05.484Z,9.11
2022-10-09T00:09:31.734Z,9.08
2022-10-09T00:11:57.979Z,9.08
2022-10-09T00:14:24.218Z,9.09
2022-10-09T00:16:50.514Z,9.07
2022-10-09T00:19:16.790Z,9.06
2022-10-09T00:21:43.055Z,8.99
2022-10-09T00:24:09.311Z,8.59
2022-10-09T00:26:35.705Z,8.84
2022-10-09T00:29:01.954Z,8.89
2022-10-09T00:31:28.225Z,8.86
2022-10-09T00:33:54.467Z,8.74
2022-10-09T00:36:20.726Z,8.80
2022-10-09T00:38:47.013Z,8.67
2022-10-09T00:41:13.415Z,8.74
2022-10-09T00:43:39.668Z,8.71
2022-10-09T00:46:05.971Z,8.66
2022-10-09T00:48:32.343Z,8.55
2022-10-09T00:50:58.611Z,8.52
2022-10-09T00:53:24.860Z,8.55
2022-10-09T00:55:51.284Z,8.56
2022-10-09T00:58:17.570Z,8.43
2022-10-09T01:00:44.098Z,8.51
2022-10-09T01:03:10.398Z,8.51
2022-10-09T01:05:36.760Z,8.53
2022-10-09T01:08:03.016Z,8.48
2022-10-09T01:10:29.360Z,8.49
2022-10-09T01:12:55.616Z,8.48
2022-10-09T01:15:21.899Z,8.41
2022-10-09T01:17:48.151Z,8.36
2022-10-09T01:20:14.445Z,8.40
2022-10-09T01:22:40.691Z,8.40
2022-10-09T01:25:06.989Z,8.29
2022-10-09T01:27:33.244Z,8.30
2022-10-09T01:29:59.527Z,8.26
2022-10-09T01:32:25.784Z,8.21
2022-10-09T01:34:52.162Z,8.25
2022-10-09T01:37:18.408Z,8.22
2022-10-09T01:39:44.664Z,8.19
2022-10-09T01:42:10.918Z,8.21
2022-10-09T01:44:37.204Z,8.22
2022-10-09T01:47:04.526Z,8.19
2022-10-09T01:49:30.799Z,8.19
2022-10-09T01:51:57.051Z,8.13
2022-10-09T01:54:23.411Z,8.08
2022-10-09T01:56:49.709Z,7.93
2022-10-09T01:59:16.330Z,7.93
2022-10-09T02:01:42.755Z,7.92
2022-10-09T02:04:09.144Z,7.96
2022-10-09T02:06:35.645Z,7.96
2022-10-09T02:09:01.916Z,7.80
2022-10-09T02:11:28.162Z,7.86
2022-10-09T02:13:54.443Z,7.78
2022-10-09T02:16:20.785Z,7.94
2022-10-09T02:18:47.153Z,7.99
2022-10-09T02:21:13.407Z,7.98
2022-10-09T02:23:39.657Z,7.96
2022-10-09T02:26:05.834Z,7.94
2022-10-09T02:28:32.151Z,7.92
2022-10-09T02:30:58.645Z,7.51
2022-10-09T02:33:24.940Z,7.72
2022-10-09T02:35:51.190Z,7.81
2022-10-09T02:38:17.509Z,7.70
2022-10-09T02:40:43.766Z,7.75
2022-10-09T02:43:10.028Z,7.67
2022-10-09T02:45:36.292Z,7.58
2022-10-09T02:48:02.554Z,7.63
2022-10-09T02:50:28.811Z,7.57
2022-10-09T02:52:55.065Z,7.64
2022-10-09T02:55:21.298Z,7.62
2022-10-09T02:57:47.551Z,7.45
2022-10-09T03:00:13.727Z,7.53
2022-10-09T03:02:39.990Z,7.53
2022-10-09T03:05:06.303Z,7.30
2022-10-09T03:07:32.490Z,7.44
2022-10-09T03:09:58.801Z,7.29
2022-10-09T03:12:25.047Z,7.39
2022-10-09T03:14:51.287Z,7.27
2022-10-09T03:17:17.466Z,7.18
2022-10-09T03:19:43.651Z,7.31
2022-10-09T03:22:09.843Z,7.35
2022-10-09T03:24:36.103Z,7.36
2022-10-09T03:27:02.363Z,7.29
2022-10-09T03:29:28.546Z,7.29
2022-10-09T03:31:54.868Z,7.27
2022-10-09T03:34:21.079Z,7.32
2022-10-09T03:36:47.290Z,7.35
2022-10-09T03:39:13.526Z,7.36
2022-10-09T03:41:39.801Z,7.34
2022-10-09T03:44:06.011Z,7.36
2022-10-09T03:46:32.290Z,7.32
2022-10-09T03:48:58.549Z,7.23
2022-10-09T03:51:24.757Z,7.23
2022-10-09T03:53:50.942Z,7.25
2022-10-09T03:56:17.144Z,7.24
2022-10-09T03:58:43.336Z,7.22
2022-10-09T04:01:09.680Z,7.21
2022-10-09T04:03:35.920Z,7.21
2022-10-09T04:06:02.130Z,7.20
2022-10-09T04:08:28.308Z,7.18
2022-10-09T04:10:54.597Z,7.19
2022-10-09T04:13:20.785Z,6.99
2022-10-09T04:15:46.989Z,7.08
2022-10-09T04:18:13.166Z,7.09
2022-10-09T04:20:39.363Z,7.11
2022-10-09T04:23:05.529Z,7.05
2022-10-09T04:25:31.869Z,6.99
2022-10-09T04:27:58.062Z,6.97
2022-10-09T04:30:24.266Z,6.99
2022-10-09T04:32:50.659Z,7.04
2022-10-09T04:35:17.214Z,7.01
2022-10-09T04:37:43.438Z,7.01
2022-10-09T04:40:09.634Z,6.96
2022-10-09T04:42:35.811Z,6.95
2022-10-09T04:45:02.139Z,6.93
2022-10-09T04:47:28.317Z,6.79
2022-10-09T04:49:54.663Z,6.82
2022-10-09T04:52:20.859Z,6.82
2022-10-09T04:54:47.058Z,6.83
2022-10-09T04:57:13.338Z,6.80
2022-10-09T04:59:39.564Z,6.80
2022-10-09T05:02:05.852Z,6.76
2022-10-09T05:04:32.127Z,6.74
2022-10-09T05:06:58.328Z,6.68
2022-10-09T05:09:24.507Z,6.71
2022-10-09T05:11:50.694Z,6.68
2022-10-09T05:14:16.876Z,6.66
2022-10-09T05:17:08.508Z,6.65
2022-10-09T05:19:29.298Z,6.66
2022-10-09T05:21:55.492Z,6.61
2022-10-09T05:24:21.742Z,6.55
2022-10-09T05:26:47.951Z,6.64
2022-10-09T05:29:14.156Z,6.68
2022-10-09T05:31:40.414Z,6.57
2022-10-09T05:34:06.695Z,6.50
2022-10-09T05:36:32.878Z,6.56
2022-10-09T05:39:01.229Z,6.62
2022-10-09T05:41:28.406Z,6.65
2022-10-09T05:43:54.588Z,6.68
2022-10-09T05:46:20.927Z,6.69
2022-10-09T05:48:47.201Z,6.73
2022-10-09T05:51:13.410Z,6.72
2022-10-09T05:53:39.615Z,6.73
2022-10-09T05:56:05.808Z,6.77
2022-10-09T05:58:32.005Z,6.80
2022-10-09T06:00:58.223Z,6.82
2022-10-09T06:03:24.416Z,6.88
2022-10-09T06:05:50.618Z,6.92
2022-10-09T06:08:16.805Z,6.96
2022-10-09T06:10:43.012Z,7.01
2022-10-09T06:13:09.203Z,7.04
2022-10-09T06:15:35.388Z,7.06
2022-10-09T06:18:01.572Z,7.08
2022-10-09T06:20:28.066Z,7.11
2022-10-09T06:22:54.243Z,7.17
2022-10-09T06:25:20.428Z,7.21
2022-10-09T06:27:46.623Z,7.11
2022-10-09T06:30:12.807Z,7.13
2022-10-09T06:32:38.998Z,7.29
2022-10-09T06:35:05.185Z,7.39
2022-10-09T06:37:31.431Z,7.41
2022-10-09T06:39:57.623Z,7.48
2022-10-09T06:42:23.848Z,7.37
2022-10-09T06:44:50.022Z,7.56
2022-10-09T06:47:16.271Z,7.55
2022-10-09T06:49:42.459Z,7.79
2022-10-09T06:52:08.722Z,7.85
2022-10-09T06:54:34.966Z,7.92
2022-10-09T06:57:01.155Z,8.00
2022-10-09T06:59:27.428Z,8.11
2022-10-09T07:01:53.752Z,8.21
2022-10-09T07:04:21.555Z,8.24
2022-10-09T07:06:48.079Z,8.37
2022-10-09T07:09:14.371Z,8.51
2022-10-09T07:11:40.600Z,8.59
2022-10-09T07:14:06.770Z,8.68
2022-10-09T07:16:33.206Z,8.80
2022-10-09T07:19:03.758Z,8.88
2022-10-09T07:21:30.016Z,9.01
2022-10-09T07:23:56.323Z,9.09
2022-10-09T07:26:22.584Z,9.18
2022-10-09T07:28:48.955Z,9.34
2022-10-09T07:31:15.334Z,9.38
2022-10-09T07:33:41.661Z,9.53
2022-10-09T07:36:07.915Z,9.51
2022-10-09T07:38:34.188Z,9.42
2022-10-09T07:41:00.606Z,9.70
2022-10-09T07:43:26.882Z,9.81
2022-10-09T07:45:53.195Z,9.89
2022-10-09T07:48:19.482Z,9.94
2022-10-09T07:50:45.736Z,9.95
2022-10-09T07:53:12.017Z,10.18
2022-10-09T07:55:38.272Z,10.07
2022-10-09T07:58:04.566Z,10.11
2022-10-09T08:00:30.814Z,10.36
2022-10-09T08:02:57.181Z,10.64
2022-10-09T08:05:23.457Z,10.69
2022-10-09T08:07:49.712Z,10.48
2022-10-09T08:10:15.969Z,10.71
2022-10-09T08:12:42.246Z,10.70
2022-10-09T08:15:08.539Z,10.93
2022-10-09T08:17:34.842Z,10.95
2022-10-09T08:20:01.112Z,11.30
2022-10-09T08:22:27.378Z,11.28
2022-10-09T08:24:53.635Z,11.32
2022-10-09T08:27:19.886Z,11.31
2022-10-09T08:29:46.139Z,11.52
2022-10-09T08:32:12.399Z,11.63
2022-10-09T08:34:38.659Z,11.75
2022-10-09T08:37:04.911Z,11.89
2022-10-09T08:39:32.247Z,12.16
2022-10-09T08:42:01.335Z,12.15
2022-10-09T08:44:27.610Z,12.37
2022-10-09T08:46:54.019Z,12.36
2022-10-09T08:49:21.443Z,12.44
2022-10-09T08:51:47.717Z,12.41
2022-10-09T08:54:14.009Z,12.63
2022-10-09T08:56:40.274Z,12.70
2022-10-09T08:59:06.570Z,12.91
2022-10-09T09:01:32.898Z,12.85
2022-10-09T09:03:59.251Z,12.94
2022-10-09T09:06:25.490Z,12.96
2022-10-09T09:08:51.753Z,13.09
2022-10-09T09:11:21.449Z,13.15
2022-10-09T09:13:51.368Z,13.57
2022-10-09T09:16:17.683Z,13.63
2022-10-09T09:18:44.230Z,13.57
2022-10-09T09:21:10.486Z,13.35
2022-10-09T09:23:36.734Z,13.55
2022-10-09T09:26:03.059Z,13.69
2022-10-09T09:28:29.404Z,13.39
2022-10-09T09:30:57.750Z,13.80
2022-10-09T09:33:24.055Z,14.04
2022-10-09T09:35:50.299Z,13.79
2022-10-09T09:38:16.568Z,13.90
2022-10-09T09:40:46.780Z,13.79
2022-10-09T09:43:13.723Z,13.87
2022-10-09T09:45:40.002Z,14.22
2022-10-09T09:48:06.256Z,14.39
2022-10-09T09:50:47.061Z,14.54
2022-10-09T09:53:16.630Z,14.24
2022-10-09T09:55:42.924Z,14.41
2022-10-09T09:58:09.201Z,14.64
2022-10-09T10:00:35.574Z,14.72
2022-10-09T10:03:01.908Z,14.76
2022-10-09T10:05:28.155Z,14.80
2022-10-09T10:07:54.406Z,14.77
2022-10-09T10:10:25.007Z,14.76
2022-10-09T10:12:52.388Z,14.87
2022-10-09T10:15:18.972Z,15.08
2022-10-09T10:17:45.255Z,14.93
2022-10-09T10:20:11.511Z,14.60
2022-10-09T10:22:37.778Z,14.93
2022-10-09T10:25:04.037Z,14.56
2022-10-09T10:27:30.584Z,14.93
2022-10-09T10:29:56.845Z,15.15
2022-10-09T10:32:23.108Z,15.32
2022-10-09T10:34:49.393Z,15.35
2022-10-09T10:37:15.651Z,15.20
2022-10-09T10:39:41.906Z,15.38
2022-10-09T10:42:08.169Z,15.36
2022-10-09T10:44:34.410Z,15.27
2022-10-09T10:47:00.809Z,15.29
2022-10-09T10:49:31.649Z,15.34
2022-10-09T10:51:59.915Z,15.66
2022-10-09T10:54:26.194Z,15.47
2022-10-09T10:56:52.486Z,15.61
2022-10-09T10:59:18.757Z,15.74
2022-10-09T11:01:45.012Z,15.80
2022-10-09T11:04:11.270Z,15.60
2022-10-09T11:06:37.544Z,15.59
2022-10-09T11:09:05.328Z,15.62
2022-10-09T11:11:33.597Z,15.54
2022-10-09T11:13:59.871Z,15.72
2022-10-09T11:16:26.174Z,15.76
2022-10-09T11:18:52.440Z,15.81
2022-10-09T11:21:18.717Z,15.81
2022-10-09T11:23:44.978Z,15.86
2022-10-09T11:26:11.228Z,16.13
2022-10-09T11:28:37.551Z,16.05
2022-10-09T11:31:03.822Z,16.10
2022-10-09T11:33:30.163Z,16.04
2022-10-09T11:35:56.410Z,15.80
2022-10-09T11:38:22.713Z,15.85
2022-10-09T11:40:49.064Z,15.80
2022-10-09T11:43:15.331Z,16.05
2022-10-09T11:45:41.652Z,16.09
2022-10-09T11:48:08.050Z,16.08
2022-10-09T11:50:34.336Z,16.26
2022-10-09T11:53:00.629Z,15.96
2022-10-09T11:55:26.912Z,16.14
2022-10-09T11:57:53.351Z,16.27
2022-10-09T12:00:19.842Z,16.34
2022-10-09T12:02:46.140Z,16.21
2022-10-09T12:05:12.440Z,16.44
2022-10-09T12:10:09.874Z,16.50
2022-10-09T12:12:37.698Z,16.52
2022-10-09T12:15:03.983Z,16.37
2022-10-09T12:17:30.251Z,16.63
2022-10-09T12:20:00.935Z,16.66
2022-10-09T12:22:27.516Z,16.58
2022-10-09T12:24:53.763Z,16.44
2022-10-09T12:27:20.033Z,16.53
2022-10-09T12:29:46.326Z,16.54
2022-10-09T12:32:12.578Z,16.49
2022-10-09T12:34:38.893Z,16.57
2022-10-09T12:37:05.218Z,16.60
2022-10-09T12:39:33.663Z,16.46
2022-10-09T12:41:59.928Z,16.46
2022-10-09T12:44:26.189Z,16.53
2022-10-09T12:46:52.469Z,16.66
2022-10-09T12:49:18.722Z,16.50
2022-10-09T12:51:44.970Z,16.49
2022-10-09T12:54:11.274Z,16.51
2022-10-09T12:56:38.288Z,16.35
2022-10-09T12:59:04.507Z,16.57
2022-10-09T13:01:30.999Z,16.63
2022-10-09T13:03:57.382Z,16.59
2022-10-09T13:06:23.660Z,16.58
2022-10-09T13:08:49.943Z,16.71
2022-10-09T13:11:16.205Z,16.64
2022-10-09T13:13:42.478Z,16.62
2022-10-09T13:16:09.502Z,16.60
2022-10-09T13:18:35.773Z,16.59
2022-10-09T13:21:02.174Z,16.71
2022-10-09T13:23:28.530Z,16.72
2022-10-09T13:25:54.815Z,16.97
2022-10-09T13:28:21.139Z,16.93
2022-10-09T13:31:04.081Z,17.04
2022-10-09T13:33:30.362Z,17.16
2022-10-09T13:35:56.616Z,17.06
2022-10-09T13:38:23.906Z,17.04
2022-10-09T13:40:50.298Z,16.87
2022-10-09T13:43:16.545Z,17.08
2022-10-09T13:45:43.892Z,17.18
2022-10-09T13:48:10.164Z,17.22
2022-10-09T13:50:36.410Z,17.19
2022-10-09T13:53:02.677Z,17.23
2022-10-09T13:55:28.930Z,17.20
2022-10-09T13:57:55.446Z,17.16
2022-10-09T14:00:21.879Z,17.06
2022-10-09T14:02:48.166Z,17.08
2022-10-09T14:05:14.430Z,17.13
2022-10-09T14:07:40.718Z,17.27
2022-10-09T14:13:09.989Z,17.04
2022-10-09T14:15:36.285Z,17.06
2022-10-09T14:18:02.559Z,17.15
2022-10-09T14:20:28.826Z,17.09
2022-10-09T14:22:55.066Z,17.05
2022-10-09T14:25:21.355Z,17.03
2022-10-09T14:27:47.659Z,16.99
2022-10-09T14:30:13.913Z,16.95
2022-10-09T14:32:40.155Z,16.94
2022-10-09T14:35:06.402Z,16.93
2022-10-09T14:37:41.549Z,17.06
2022-10-09T14:40:08.564Z,17.00
2022-10-09T14:42:34.877Z,16.97
2022-10-09T14:45:01.176Z,17.05
2022-10-09T14:47:27.456Z,16.94
2022-10-09T14:49:54.026Z,16.88
2022-10-09T14:52:20.300Z,16.78
2022-10-09T14:54:46.572Z,16.88
2022-10-09T14:57:13.044Z,16.84
2022-10-09T14:59:39.292Z,16.77
2022-10-09T15:02:07.022Z,16.88
2022-10-09T15:04:33.366Z,16.86
2022-10-09T15:06:59.644Z,16.77
2022-10-09T15:09:26.400Z,16.78
2022-10-09T15:11:52.735Z,16.67
2022-10-09T15:14:18.986Z,16.66
2022-10-09T15:16:45.446Z,16.75
2022-10-09T15:19:11.721Z,16.67
2022-10-09T15:21:37.985Z,16.71
2022-10-09T15:24:04.252Z,16.72
2022-10-09T15:26:30.502Z,16.53
2022-10-09T15:28:57.631Z,16.46
2022-10-09T15:31:24.009Z,16.45
2022-10-09T15:33:50.354Z,16.46
2022-10-09T15:36:16.618Z,16.39
2022-10-09T15:38:42.927Z,16.20
2022-10-09T15:41:09.184Z,16.31
2022-10-09T15:46:38.448Z,16.18
2022-10-09T15:49:04.710Z,16.01
2022-10-09T15:51:33.032Z,15.96
2022-10-09T15:53:59.876Z,15.92
2022-10-09T15:56:26.126Z,15.90
2022-10-09T15:58:52.387Z,15.88
2022-10-09T16:01:18.758Z,15.82
2022-10-09T16:03:45.057Z,15.77
2022-10-09T16:06:11.317Z,15.69
2022-10-09T16:08:37.567Z,15.68
2022-10-09T16:11:03.840Z,15.50
2022-10-09T16:13:30.156Z,15.49
2022-10-09T16:15:56.407Z,15.43
2022-10-09T16:18:22.672Z,15.39
2022-10-09T16:20:48.941Z,15.30
2022-10-09T16:23:15.200Z,15.23
2022-10-09T16:25:41.463Z,15.20
2022-10-09T16:28:07.776Z,15.12
2022-10-09T16:30:34.189Z,15.00
2022-10-09T16:33:00.448Z,14.91
2022-10-09T16:35:26.703Z,14.65
2022-10-09T16:37:53.252Z,14.66
2022-10-09T16:40:21.072Z,14.65
2022-10-09T16:42:52.130Z,14.58
2022-10-09T16:45:18.515Z,14.48
2022-10-09T16:47:45.509Z,14.39
2022-10-09T16:50:12.028Z,14.29
2022-10-09T16:52:38.285Z,14.24
2022-10-09T16:55:04.549Z,14.14
2022-10-09T16:57:30.809Z,14.06
2022-10-09T16:59:57.078Z,14.02
2022-10-09T17:02:23.338Z,13.95
2022-10-09T17:04:49.586Z,13.86
2022-10-09T17:07:15.863Z,13.79
2022-10-09T17:09:42.924Z,13.72
2022-10-09T17:12:09.698Z,13.70
2022-10-09T17:14:36.847Z,13.60
2022-10-09T17:17:03.039Z,13.49
2022-10-09T17:19:29.291Z,13.44
2022-10-09T17:21:55.653Z,13.40
2022-10-09T17:24:21.899Z,13.33
2022-10-09T17:26:48.222Z,13.27
2022-10-09T17:29:14.490Z,13.12
2022-10-09T17:31:40.818Z,13.04
2022-10-09T17:34:07.122Z,12.91
2022-10-09T17:36:33.370Z,12.86
2022-10-09T17:38:59.704Z,12.84
2022-10-09T17:41:25.946Z,12.79
2022-10-09T17:43:52.291Z,12.75
2022-10-09T17:46:18.578Z,12.66
2022-10-09T17:48:48.416Z,12.56
2022-10-09T17:51:14.851Z,12.62
2022-10-09T17:53:41.122Z,12.58
2022-10-09T17:56:07.388Z,12.59
2022-10-09T17:58:33.643Z,12.53
2022-10-09T18:00:59.949Z,12.46
2022-10-09T18:03:26.224Z,12.48
2022-10-09T18:05:52.498Z,12.42
2022-10-09T18:08:18.810Z,12.48
2022-10-09T18:10:45.070Z,12.42
2022-10-09T18:13:11.344Z,12.48
2022-10-09T18:15:37.732Z,12.45
2022-10-09T18:18:04.003Z,12.47
2022-10-09T18:20:32.900Z,12.37
2022-10-09T18:22:59.175Z,12.18
2022-10-09T18:25:25.423Z,12.16
2022-10-09T18:27:52.101Z,12.05
2022-10-09T18:30:20.536Z,12.12
2022-10-09T18:32:46.957Z,12.18
2022-10-09T18:35:13.396Z,12.08
2022-10-09T18:37:39.653Z,11.96
2022-10-09T18:40:05.906Z,12.03
2022-10-09T18:42:32.161Z,12.05
2022-10-09T18:44:58.487Z,11.95
2022-10-09T18:47:26.147Z,11.94
2022-10-09T18:49:52.475Z,11.82
2022-10-09T18:52:18.728Z,11.79
2022-10-09T18:54:44.979Z,11.66
2022-10-09T18:57:11.272Z,11.68
2022-10-09T18:59:38.020Z,11.68
2022-10-09T19:02:04.274Z,11.63
2022-10-09T19:04:30.575Z,11.62
2022-10-09T19:06:56.869Z,11.64
2022-10-09T19:09:23.118Z,11.57
2022-10-09T19:11:49.453Z,11.33
2022-10-09T19:14:15.892Z,11.30
2022-10-09T19:16:42.164Z,11.10
2022-10-09T19:19:08.465Z,11.19
2022-10-09T19:21:34.735Z,11.29
2022-10-09T19:24:04.372Z,11.21
2022-10-09T19:26:30.633Z,11.32
2022-10-09T19:28:56.891Z,11.30
2022-10-09T19:31:23.151Z,11.29
2022-10-09T19:33:49.411Z,11.10
2022-10-09T19:36:15.663Z,11.16
2022-10-09T19:38:41.914Z,11.01
2022-10-09T19:41:08.170Z,10.96
2022-10-09T19:43:34.541Z,10.92
2022-10-09T19:46:00.790Z,10.95
2022-10-09T19:48:27.053Z,10.78
2022-10-09T19:50:53.318Z,10.85
2022-10-09T19:53:19.574Z,10.61
2022-10-09T19:55:45.826Z,10.57
2022-10-09T19:58:17.723Z,10.64
2022-10-09T20:00:44.158Z,10.65
2022-10-09T20:03:10.411Z,10.64
2022-10-09T20:05:36.666Z,10.56
2022-10-09T20:08:02.924Z,10.52
2022-10-09T20:10:29.183Z,10.48
2022-10-09T20:12:55.450Z,10.44
2022-10-09T20:15:22.284Z,10.48
2022-10-09T20:17:48.541Z,10.48
2022-10-09T20:20:14.789Z,10.44
2022-10-09T20:22:41.111Z,10.44
2022-10-09T20:25:07.362Z,10.44
2022-10-09T20:27:33.627Z,10.32
2022-10-09T20:29:59.881Z,10.35
2022-10-09T20:32:26.161Z,10.34
2022-10-09T20:34:52.451Z,10.28
2022-10-09T20:37:18.690Z,10.15
2022-10-09T20:39:44.954Z,10.09
2022-10-09T20:42:11.215Z,10.10
2022-10-09T20:44:37.487Z,10.12
2022-10-09T21:01:36.727Z,9.72
2022-10-09T21:04:03.203Z,9.62
2022-10-09T21:06:30.157Z,9.61
2022-10-09T21:08:56.436Z,9.64
2022-10-09T21:11:22.732Z,9.68
2022-10-09T21:13:49.003Z,9.52
2022-10-09T21:16:15.240Z,9.59
2022-10-09T21:18:41.506Z,9.47
2022-10-09T21:21:07.755Z,9.54
2022-10-09T21:23:34.034Z,9.64
2022-10-09T21:26:00.278Z,9.63
2022-10-09T21:28:26.671Z,9.65
2022-10-09T21:30:52.915Z,9.67
2022-10-09T21:33:19.182Z,9.61
2022-10-09T21:35:45.713Z,9.64
2022-10-09T21:38:12.583Z,9.66
2022-10-09T21:40:38.834Z,9.70
2022-10-09T21:43:05.112Z,9.68
2022-10-09T21:45:31.418Z,9.67
2022-10-09T21:47:57.693Z,9.67
2022-10-09T21:50:24.015Z,9.66
2022-10-09T21:52:50.461Z,9.61
2022-10-09T21:55:16.925Z,9.62
2022-10-09T21:57:45.203Z,9.68
2022-10-09T22:00:11.595Z,9.64
2022-10-09T22:02:37.888Z,9.66
2022-10-09T22:05:04.148Z,9.65
2022-10-09T22:07:32.726Z,9.64
2022-10-09T22:09:58.984Z,9.61
2022-10-09T22:12:25.256Z,9.60
2022-10-09T22:14:51.498Z,9.64
2022-10-09T22:17:17.780Z,9.65
2022-10-09T22:19:44.216Z,9.64
2022-10-09T22:22:10.473Z,9.60
2022-10-09T22:24:36.765Z,9.56
2022-10-09T22:27:03.006Z,9.56
2022-10-09T22:29:29.262Z,9.49
2022-10-09T22:31:55.526Z,9.49
2022-10-09T22:34:21.789Z,9.57
2022-10-09T22:36:48.064Z,9.59
2022-10-09T22:39:14.338Z,9.55
2022-10-09T22:41:40.608Z,9.53
2022-10-09T22:44:06.861Z,9.61
2022-10-09T22:46:33.120Z,9.56
2022-10-09T22:48:59.378Z,9.57
2022-10-09T22:51:25.743Z,9.56
2022-10-09T22:53:52.209Z,9.46
2022-10-09T22:56:18.463Z,9.54
2022-10-09T22:58:44.743Z,9.53
2022-10-09T23:01:11.220Z,9.44
2022-10-09T23:03:37.595Z,9.51
2022-10-09T23:06:03.845Z,9.55
2022-10-09T23:08:30.102Z,9.60
2022-10-09T23:10:56.362Z,9.60
2022-10-09T23:13:22.685Z,9.60
2022-10-09T23:15:48.939Z,9.66
2022-10-09T23:18:15.340Z,9.67
2022-10-09T23:20:41.656Z,9.61
2022-10-09T23:23:07.932Z,9.66
2022-10-09T23:25:34.179Z,9.62
2022-10-09T23:28:00.459Z,9.66
2022-10-09T23:30:26.735Z,9.61
2022-10-09T23:32:53.098Z,9.56
2022-10-09T23:35:19.499Z,9.55
2022-10-09T23:37:45.747Z,9.56
2022-10-09T23:40:12.006Z,9.55
2022-10-09T23:42:38.268Z,9.58
2022-10-09T23:45:04.557Z,9.59
2022-10-09T23:47:30.812Z,9.58
2022-10-09T23:49:57.073Z,9.58
2022-10-09T23:52:23.315Z,9.58
2022-10-09T23:54:49.562Z,9.57
2022-10-09T23:57:15.829Z,9.55
2022-10-09T23:59:42.148Z,9.61
